createdAt,value
2023-02-15T00:00:00.865Z,4.05
2023-02-15T00:01:00.846Z,4.05
2023-02-15T00:02:00.926Z,4.08
2023-02-15T00:03:00.885Z,4.09
2023-02-15T00:04:00.851Z,4.09
2023-02-15T00:05:00.855Z,4.10
2023-02-15T00:06:01.159Z,4.09
2023-02-15T00:07:00.804Z,4.09
2023-02-15T00:08:00.787Z,4.06
2023-02-15T00:09:00.816Z,4.05
2023-02-15T00:10:00.850Z,4.02
2023-02-15T00:11:00.742Z,3.99
2023-02-15T00:12:00.775Z,3.98
2023-02-15T00:13:00.732Z,3.91
2023-02-15T00:14:00.724Z,3.88
2023-02-15T00:15:00.784Z,3.88
2023-02-15T00:16:01.065Z,3.88
2023-02-15T00:17:00.717Z,3.88
2023-02-15T00:18:00.685Z,3.88
2023-02-15T00:19:00.703Z,3.88
2023-02-15T00:20:00.662Z,3.87
2023-02-15T00:21:00.673Z,3.85
2023-02-15T00:22:00.628Z,3.87
2023-02-15T00:23:00.617Z,3.87
2023-02-15T00:24:00.633Z,3.87
2023-02-15T00:25:00.649Z,3.87
2023-02-15T00:26:00.960Z,3.87
2023-02-15T00:27:00.576Z,3.87
2023-02-15T00:28:00.576Z,3.85
2023-02-15T00:29:00.553Z,3.85
2023-02-15T00:30:00.628Z,3.84
2023-02-15T00:31:00.672Z,3.82
2023-02-15T00:32:00.520Z,3.81
2023-02-15T00:33:00.512Z,3.80
2023-02-15T00:34:00.506Z,3.78
2023-02-15T00:35:00.563Z,3.74
2023-02-15T00:36:00.860Z,3.73
2023-02-15T00:37:00.464Z,3.70
2023-02-15T00:38:00.473Z,3.70
2023-02-15T00:39:00.499Z,3.70
2023-02-15T00:40:00.455Z,3.70
2023-02-15T00:41:00.445Z,3.69
2023-02-15T00:42:00.431Z,3.67
2023-02-15T00:43:00.394Z,3.67
2023-02-15T00:44:00.403Z,3.70
2023-02-15T00:45:00.422Z,3.73
2023-02-15T00:46:00.776Z,3.76
2023-02-15T00:47:00.500Z,3.78
2023-02-15T00:48:00.340Z,3.81
2023-02-15T00:49:00.361Z,3.84
2023-02-15T00:50:00.330Z,3.85
2023-02-15T00:51:00.329Z,3.85
2023-02-15T00:52:00.478Z,3.87
2023-02-15T00:53:00.331Z,3.90
2023-02-15T00:54:00.306Z,3.88
2023-02-15T00:55:00.269Z,3.91
2023-02-15T00:56:00.745Z,3.92
2023-02-15T00:57:00.261Z,3.92
2023-02-15T00:58:00.238Z,3.90
2023-02-15T00:59:00.243Z,3.88
2023-02-15T01:00:00.289Z,3.85
2023-02-15T01:01:00.310Z,3.81
2023-02-15T01:02:00.228Z,3.80
2023-02-15T01:03:00.200Z,3.78
2023-02-15T01:04:00.245Z,3.76
2023-02-15T01:05:00.214Z,3.74
2023-02-15T01:06:00.539Z,3.74
2023-02-15T01:07:00.170Z,3.73
2023-02-15T01:08:00.159Z,3.72
2023-02-15T01:09:00.138Z,3.69
2023-02-15T01:10:00.133Z,3.67
2023-02-15T01:11:00.117Z,3.63
2023-02-15T01:12:00.134Z,3.62
2023-02-15T01:13:00.118Z,3.59
2023-02-15T01:14:00.094Z,3.56
2023-02-15T01:15:00.102Z,3.55
2023-02-15T01:16:00.584Z,3.54
2023-02-15T01:17:00.121Z,3.52
2023-02-15T01:18:00.043Z,3.49
2023-02-15T01:19:00.036Z,3.51
2023-02-15T01:20:00.035Z,3.51
2023-02-15T01:21:00.041Z,3.51
2023-02-15T01:22:00.045Z,3.51
2023-02-15T01:22:59.992Z,3.49
2023-02-15T01:24:00.014Z,3.48
2023-02-15T01:24:59.969Z,3.48
2023-02-15T01:26:00.315Z,3.48
2023-02-15T01:26:59.972Z,3.48
2023-02-15T01:27:59.991Z,3.49
2023-02-15T01:28:59.930Z,3.51
2023-02-15T01:29:59.957Z,3.49
2023-02-15T01:30:59.977Z,3.49
2023-02-15T01:32:01.836Z,3.49
2023-02-15T01:32:59.913Z,3.49
2023-02-15T01:33:59.883Z,3.45
2023-02-15T01:34:59.880Z,3.42
2023-02-15T01:36:00.206Z,3.41
2023-02-15T01:36:59.913Z,3.36
2023-02-15T01:37:59.832Z,3.32
2023-02-15T01:38:59.830Z,3.29
2023-02-15T01:39:59.867Z,3.27
2023-02-15T01:40:59.799Z,3.25
2023-02-15T01:41:59.820Z,3.25
2023-02-15T01:42:59.797Z,3.26
2023-02-15T01:43:59.784Z,3.26
2023-02-15T01:44:59.772Z,3.27
2023-02-15T01:46:00.292Z,3.27
2023-02-15T01:46:59.728Z,3.26
2023-02-15T01:47:59.808Z,3.27
2023-02-15T01:48:59.748Z,3.26
2023-02-15T01:49:59.698Z,3.26
2023-02-15T01:50:59.925Z,3.25
2023-02-15T01:51:59.809Z,3.23
2023-02-15T01:52:59.676Z,3.22
2023-02-15T01:53:59.680Z,3.20
2023-02-15T01:54:59.726Z,3.20
2023-02-15T01:56:00.072Z,3.17
2023-02-15T01:56:59.671Z,3.14
2023-02-15T01:57:59.613Z,3.14
2023-02-15T01:58:59.603Z,3.14
2023-02-15T01:59:59.615Z,3.12
2023-02-15T02:01:01.117Z,3.11
2023-02-15T02:01:59.562Z,3.09
2023-02-15T02:02:59.623Z,3.09
2023-02-15T02:03:59.563Z,3.08
2023-02-15T02:04:59.575Z,3.05
2023-02-15T02:05:59.794Z,3.07
2023-02-15T02:06:59.523Z,3.07
2023-02-15T02:07:59.510Z,3.08
2023-02-15T02:08:59.527Z,3.07
2023-02-15T02:09:59.492Z,3.08
2023-02-15T02:10:59.539Z,3.08
2023-02-15T02:11:59.524Z,3.09
2023-02-15T02:12:59.468Z,3.12
2023-02-15T02:13:59.522Z,3.14
2023-02-15T02:14:59.452Z,3.14
2023-02-15T02:15:59.940Z,3.17
2023-02-15T02:16:59.411Z,3.17
2023-02-15T02:17:59.406Z,3.14
2023-02-15T02:18:59.391Z,3.12
2023-02-15T02:19:59.429Z,3.09
2023-02-15T02:20:59.440Z,3.08
2023-02-15T02:21:59.364Z,3.07
2023-02-15T02:22:59.384Z,3.02
2023-02-15T02:23:59.341Z,2.99
2023-02-15T02:24:59.392Z,2.97
2023-02-15T02:25:59.757Z,2.94
2023-02-15T02:26:59.338Z,2.90
2023-02-15T02:27:59.314Z,2.90
2023-02-15T02:28:59.299Z,2.87
2023-02-15T02:29:59.400Z,2.84
2023-02-15T02:30:59.438Z,2.81
2023-02-15T02:31:59.287Z,2.81
2023-02-15T02:32:59.248Z,2.81
2023-02-15T02:33:59.298Z,2.79
2023-02-15T02:34:59.248Z,2.79
2023-02-15T02:35:59.588Z,2.81
2023-02-15T02:36:59.230Z,2.82
2023-02-15T02:37:59.220Z,2.86
2023-02-15T02:38:59.248Z,2.87
2023-02-15T02:39:59.181Z,2.87
2023-02-15T02:40:59.176Z,2.89
2023-02-15T02:41:59.160Z,2.89
2023-02-15T02:42:59.157Z,2.89
2023-02-15T02:43:59.146Z,2.90
2023-02-15T02:44:59.125Z,2.91
2023-02-15T02:45:59.382Z,2.93
2023-02-15T02:46:59.158Z,2.93
2023-02-15T02:47:59.114Z,2.93
2023-02-15T02:48:59.137Z,2.94
2023-02-15T02:49:59.101Z,2.93
2023-02-15T02:50:59.077Z,2.90
2023-02-15T02:51:59.073Z,2.90
2023-02-15T02:52:59.046Z,2.84
2023-02-15T02:53:59.026Z,2.82
2023-02-15T02:54:59.065Z,2.79
2023-02-15T02:55:59.142Z,2.76
2023-02-15T02:56:59.016Z,2.73
2023-02-15T02:57:58.985Z,2.72
2023-02-15T02:58:58.976Z,2.69
2023-02-15T02:59:59.044Z,2.68
2023-02-15T03:00:59.018Z,2.66
2023-02-15T03:01:59.025Z,2.66
2023-02-15T03:02:59.027Z,2.63
2023-02-15T03:03:58.988Z,2.60
2023-02-15T03:04:58.945Z,2.57
2023-02-15T03:05:59.064Z,2.57
2023-02-15T03:06:58.903Z,2.57
2023-02-15T03:07:58.901Z,2.55
2023-02-15T03:08:58.946Z,2.55
2023-02-15T03:09:58.865Z,2.54
2023-02-15T03:10:58.845Z,2.53
2023-02-15T03:11:58.862Z,2.51
2023-02-15T03:12:58.826Z,2.50
2023-02-15T03:13:58.975Z,2.50
2023-02-15T03:14:58.798Z,2.51
2023-02-15T03:15:58.956Z,2.53
2023-02-15T03:16:58.819Z,2.54
2023-02-15T03:17:58.805Z,2.54
2023-02-15T03:18:58.879Z,2.55
2023-02-15T03:19:58.769Z,2.57
2023-02-15T03:20:58.786Z,2.58
2023-02-15T03:21:58.868Z,2.61
2023-02-15T03:22:58.745Z,2.61
2023-02-15T03:23:58.740Z,2.61
2023-02-15T03:24:58.718Z,2.61
2023-02-15T03:25:58.756Z,2.63
2023-02-15T03:26:58.690Z,2.65
2023-02-15T03:27:58.697Z,2.66
2023-02-15T03:28:58.679Z,2.68
2023-02-15T03:29:58.694Z,2.68
2023-02-15T03:30:58.765Z,2.69
2023-02-15T03:31:58.880Z,2.69
2023-02-15T03:32:58.627Z,2.71
2023-02-15T03:33:58.713Z,2.72
2023-02-15T03:34:58.659Z,2.75
2023-02-15T03:35:58.644Z,2.78
2023-02-15T03:36:58.586Z,2.81
2023-02-15T03:37:58.606Z,2.79
2023-02-15T03:38:58.577Z,2.81
2023-02-15T03:39:58.567Z,2.78
2023-02-15T03:40:58.606Z,2.75
2023-02-15T03:41:58.526Z,2.72
2023-02-15T03:42:58.536Z,2.72
2023-02-15T03:43:58.506Z,2.71
2023-02-15T03:44:58.516Z,2.69
2023-02-15T03:45:58.496Z,2.71
2023-02-15T03:46:58.529Z,2.69
2023-02-15T03:47:58.458Z,2.66
2023-02-15T03:48:58.470Z,2.65
2023-02-15T03:49:58.467Z,2.61
2023-02-15T03:50:58.446Z,2.60
2023-02-15T03:51:58.456Z,2.57
2023-02-15T03:52:58.405Z,2.58
2023-02-15T03:53:58.426Z,2.58
2023-02-15T03:54:58.404Z,2.57
2023-02-15T03:55:58.410Z,2.55
2023-02-15T03:56:58.412Z,2.54
2023-02-15T03:57:58.461Z,2.50
2023-02-15T03:58:58.383Z,2.50
2023-02-15T03:59:58.341Z,2.45
2023-02-15T04:00:58.385Z,2.42
2023-02-15T04:01:58.329Z,2.40
2023-02-15T04:02:58.404Z,2.37
2023-02-15T04:03:58.320Z,2.36
2023-02-15T04:04:58.292Z,2.35
2023-02-15T04:05:58.270Z,2.36
2023-02-15T04:06:58.280Z,2.36
2023-02-15T04:07:58.253Z,2.36
2023-02-15T04:08:58.333Z,2.35
2023-02-15T04:09:58.266Z,2.36
2023-02-15T04:10:58.238Z,2.39
2023-02-15T04:11:58.217Z,2.51
2023-02-15T04:12:58.235Z,2.58
2023-02-15T04:13:58.198Z,2.66
2023-02-15T04:14:58.200Z,2.76
2023-02-15T04:15:58.220Z,2.82
2023-02-15T04:16:58.199Z,2.94
2023-02-15T04:17:58.178Z,3.05
2023-02-15T04:18:58.133Z,3.11
2023-02-15T04:19:58.136Z,3.15
2023-02-15T04:20:58.120Z,3.23
2023-02-15T04:21:58.164Z,3.25
2023-02-15T04:22:58.095Z,3.26
2023-02-15T04:23:58.096Z,3.25
2023-02-15T04:24:58.094Z,3.25
2023-02-15T04:25:58.064Z,3.22
2023-02-15T04:26:58.083Z,3.17
2023-02-15T04:27:58.066Z,3.12
2023-02-15T04:28:58.045Z,3.05
2023-02-15T04:29:58.138Z,2.99
2023-02-15T04:30:58.035Z,2.96
2023-02-15T04:31:58.094Z,2.93
2023-02-15T04:32:58.004Z,2.90
2023-02-15T04:33:57.972Z,2.90
2023-02-15T04:34:57.990Z,2.84
2023-02-15T04:35:57.979Z,2.79
2023-02-15T04:36:58.002Z,2.76
2023-02-15T04:37:57.990Z,2.72
2023-02-15T04:38:57.927Z,2.71
2023-02-15T04:39:57.919Z,2.66
2023-02-15T04:40:57.953Z,2.61
2023-02-15T04:41:57.886Z,2.60
2023-02-15T04:42:57.900Z,2.54
2023-02-15T04:43:57.887Z,2.50
2023-02-15T04:44:57.877Z,2.47
2023-02-15T04:45:57.892Z,2.43
2023-02-15T04:46:57.897Z,2.40
2023-02-15T04:47:57.827Z,2.39
2023-02-15T04:48:57.819Z,2.36
2023-02-15T04:49:58.242Z,2.33
2023-02-15T04:50:57.824Z,2.32
2023-02-15T04:51:57.852Z,2.32
2023-02-15T04:52:57.780Z,2.29
2023-02-15T04:53:57.809Z,2.29
2023-02-15T04:54:57.779Z,2.24
2023-02-15T04:55:57.770Z,2.19
2023-02-15T04:56:57.774Z,2.18
2023-02-15T04:57:57.759Z,2.18
2023-02-15T04:58:57.736Z,2.15
2023-02-15T04:59:57.716Z,2.12
2023-02-15T05:00:57.779Z,2.11
2023-02-15T05:01:57.676Z,2.07
2023-02-15T05:02:57.730Z,2.07
2023-02-15T05:03:57.777Z,2.04
2023-02-15T05:04:57.684Z,2.03
2023-02-15T05:05:57.633Z,2.01
2023-02-15T05:06:57.666Z,2.00
2023-02-15T05:07:57.628Z,1.99
2023-02-15T05:08:57.613Z,2.01
2023-02-15T05:09:57.609Z,2.04
2023-02-15T05:10:57.579Z,2.06
2023-02-15T05:11:57.628Z,2.06
2023-02-15T05:12:57.561Z,2.10
2023-02-15T05:13:57.591Z,2.10
2023-02-15T05:14:57.543Z,2.11
2023-02-15T05:15:57.526Z,2.10
2023-02-15T05:16:57.636Z,2.11
2023-02-15T05:17:57.514Z,2.06
2023-02-15T05:18:57.504Z,2.04
2023-02-15T05:19:57.496Z,2.04
2023-02-15T05:20:57.478Z,2.04
2023-02-15T05:21:57.467Z,2.04
2023-02-15T05:22:57.494Z,2.03
2023-02-15T05:23:57.516Z,2.03
2023-02-15T05:24:57.425Z,2.01
2023-02-15T05:25:57.416Z,1.99
2023-02-15T05:26:57.425Z,1.97
2023-02-15T05:28:01.185Z,1.93
2023-02-15T05:28:57.455Z,1.92
2023-02-15T05:29:57.595Z,1.92
2023-02-15T05:30:57.755Z,1.91
2023-02-15T05:31:57.599Z,1.91
2023-02-15T05:32:57.411Z,1.89
2023-02-15T05:33:57.375Z,1.87
2023-02-15T05:34:57.317Z,1.97
2023-02-15T05:35:57.348Z,2.14
2023-02-15T05:36:57.317Z,2.32
2023-02-15T05:37:57.298Z,2.43
2023-02-15T05:38:57.306Z,2.51
2023-02-15T05:39:57.287Z,2.55
2023-02-15T05:40:57.268Z,2.57
2023-02-15T05:41:57.297Z,2.60
2023-02-15T05:42:57.247Z,2.55
2023-02-15T05:43:57.346Z,2.54
2023-02-15T05:44:57.225Z,2.53
2023-02-15T05:45:57.359Z,2.53
2023-02-15T05:46:57.202Z,2.54
2023-02-15T05:47:57.194Z,2.61
2023-02-15T05:48:57.175Z,2.72
2023-02-15T05:49:57.210Z,2.82
2023-02-15T05:50:57.176Z,2.84
2023-02-15T05:51:57.167Z,2.87
2023-02-15T05:52:57.172Z,2.86
2023-02-15T05:53:57.143Z,2.82
2023-02-15T05:54:57.116Z,2.82
2023-02-15T05:55:57.156Z,2.87
2023-02-15T05:56:57.107Z,2.90
2023-02-15T05:57:57.085Z,2.93
2023-02-15T05:58:57.068Z,2.99
2023-02-15T05:59:57.078Z,3.11
2023-02-15T06:00:57.118Z,3.12
2023-02-15T06:01:57.035Z,3.11
2023-02-15T06:02:57.063Z,3.09
2023-02-15T06:03:57.035Z,3.05
2023-02-15T06:04:57.053Z,3.00
2023-02-15T06:05:57.012Z,2.99
2023-02-15T06:06:57.046Z,3.00
2023-02-15T06:07:56.982Z,2.97
2023-02-15T06:08:57.005Z,2.93
2023-02-15T06:09:56.980Z,2.87
2023-02-15T06:10:56.948Z,2.82
2023-02-15T06:11:56.974Z,2.76
2023-02-15T06:12:58.769Z,2.71
2023-02-15T06:13:56.938Z,2.65
2023-02-15T06:14:56.965Z,2.57
2023-02-15T06:15:57.023Z,2.54
2023-02-15T06:16:56.881Z,2.48
2023-02-15T06:17:56.876Z,2.45
2023-02-15T06:18:56.865Z,2.43
2023-02-15T06:19:56.872Z,2.42
2023-02-15T06:20:56.883Z,2.42
2023-02-15T06:21:56.875Z,2.40
2023-02-15T06:22:56.816Z,2.39
2023-02-15T06:23:56.831Z,2.39
2023-02-15T06:24:56.838Z,2.39
2023-02-15T06:25:56.809Z,2.40
2023-02-15T06:26:57.013Z,2.40
2023-02-15T06:27:56.770Z,2.42
2023-02-15T06:28:56.783Z,2.42
2023-02-15T06:29:56.766Z,2.40
2023-02-15T06:30:56.912Z,2.40
2023-02-15T06:31:56.890Z,2.40
2023-02-15T06:32:56.732Z,2.37
2023-02-15T06:33:56.692Z,2.36
2023-02-15T06:34:56.689Z,2.35
2023-02-15T06:36:04.146Z,2.35
2023-02-15T06:36:56.685Z,2.35
2023-02-15T06:37:56.665Z,2.33
2023-02-15T06:38:56.705Z,2.30
2023-02-15T06:39:56.661Z,2.32
2023-02-15T06:40:56.637Z,2.30
2023-02-15T06:41:56.686Z,2.29
2023-02-15T06:42:56.610Z,2.28
2023-02-15T06:43:56.704Z,2.24
2023-02-15T06:44:56.591Z,2.19
2023-02-15T06:45:56.589Z,2.19
2023-02-15T06:46:56.568Z,2.18
2023-02-15T06:47:56.743Z,2.19
2023-02-15T06:48:56.589Z,2.21
2023-02-15T06:49:56.926Z,2.22
2023-02-15T06:50:56.541Z,2.24
2023-02-15T06:51:56.526Z,2.25
2023-02-15T06:52:56.512Z,2.25
2023-02-15T06:53:56.504Z,2.24
2023-02-15T06:54:56.492Z,2.25
2023-02-15T06:55:56.793Z,2.25
2023-02-15T06:56:56.462Z,2.25
2023-02-15T06:57:56.482Z,2.25
2023-02-15T06:58:56.443Z,2.22
2023-02-15T06:59:56.421Z,2.24
2023-02-15T07:00:56.493Z,2.28
2023-02-15T07:01:56.450Z,2.25
2023-02-15T07:02:56.399Z,2.25
2023-02-15T07:03:56.420Z,2.28
2023-02-15T07:04:56.518Z,2.25
2023-02-15T07:05:56.389Z,2.25
2023-02-15T07:06:56.349Z,2.25
2023-02-15T07:07:56.337Z,2.29
2023-02-15T07:08:56.398Z,2.24
2023-02-15T07:09:56.362Z,2.24
2023-02-15T07:10:56.306Z,2.25
2023-02-15T07:11:56.286Z,2.25
2023-02-15T07:12:56.297Z,2.25
2023-02-15T07:13:56.273Z,2.25
2023-02-15T07:14:56.330Z,2.29
2023-02-15T07:15:56.280Z,2.28
2023-02-15T07:16:56.245Z,2.28
2023-02-15T07:17:56.227Z,2.28
2023-02-15T07:18:56.213Z,2.28
2023-02-15T07:19:56.206Z,2.28
2023-02-15T07:20:56.265Z,2.28
2023-02-15T07:21:56.183Z,2.28
2023-02-15T07:22:56.174Z,2.24
2023-02-15T07:23:56.163Z,2.25
2023-02-15T07:24:56.191Z,2.28
2023-02-15T07:25:56.220Z,2.28
2023-02-15T07:26:56.182Z,2.29
2023-02-15T07:27:56.122Z,2.29
2023-02-15T07:28:56.118Z,2.29
2023-02-15T07:29:56.132Z,2.29
2023-02-15T07:30:56.185Z,2.30
2023-02-15T07:31:56.115Z,2.30
2023-02-15T07:32:56.070Z,2.32
2023-02-15T07:33:56.091Z,2.35
2023-02-15T07:34:56.049Z,2.35
2023-02-15T07:35:56.110Z,2.36
2023-02-15T07:36:56.028Z,2.37
2023-02-15T07:37:56.012Z,2.39
2023-02-15T07:38:56.010Z,2.40
2023-02-15T07:39:56.018Z,2.42
2023-02-15T07:40:57.938Z,2.47
2023-02-15T07:41:55.999Z,2.50
2023-02-15T07:42:56.089Z,2.53
2023-02-15T07:43:55.949Z,2.57
2023-02-15T07:44:55.980Z,2.66
2023-02-15T07:45:55.929Z,2.72
2023-02-15T07:46:56.074Z,2.76
2023-02-15T07:47:55.924Z,2.82
2023-02-15T07:48:55.954Z,2.86
2023-02-15T07:49:55.879Z,2.90
2023-02-15T07:50:55.886Z,2.91
2023-02-15T07:51:55.888Z,2.94
2023-02-15T07:52:55.862Z,2.97
2023-02-15T07:53:55.846Z,2.99
2023-02-15T07:54:55.977Z,3.02
2023-02-15T07:55:55.822Z,3.04
2023-02-15T07:56:55.817Z,3.07
2023-02-15T07:57:55.813Z,3.11
2023-02-15T07:58:55.800Z,3.12
2023-02-15T07:59:55.798Z,3.17
2023-02-15T08:00:55.814Z,3.23
2023-02-15T08:01:55.765Z,3.27
2023-02-15T08:02:55.776Z,3.30
2023-02-15T08:03:55.804Z,3.35
2023-02-15T08:04:55.729Z,3.37
2023-02-15T08:05:55.767Z,3.42
2023-02-15T08:06:55.713Z,3.45
2023-02-15T08:07:55.695Z,3.51
2023-02-15T08:08:55.694Z,3.52
2023-02-15T08:09:55.678Z,3.55
2023-02-15T08:10:55.685Z,3.56
2023-02-15T08:11:55.705Z,3.62
2023-02-15T08:12:55.661Z,3.64
2023-02-15T08:13:55.638Z,3.67
2023-02-15T08:14:55.624Z,3.70
2023-02-15T08:15:55.643Z,3.73
2023-02-15T08:16:55.653Z,3.80
2023-02-15T08:17:55.618Z,3.84
2023-02-15T08:18:55.588Z,3.87
2023-02-15T08:19:55.578Z,3.90
2023-02-15T08:20:55.578Z,3.94
2023-02-15T08:21:55.585Z,3.98
2023-02-15T08:22:55.550Z,4.00
2023-02-15T08:23:55.531Z,4.03
2023-02-15T08:24:55.529Z,4.06
2023-02-15T08:25:55.511Z,4.08
2023-02-15T08:26:55.537Z,4.12
2023-02-15T08:27:55.500Z,4.13
2023-02-15T08:28:55.486Z,4.16
2023-02-15T08:29:55.529Z,4.18
2023-02-15T08:30:55.522Z,4.21
2023-02-15T08:31:55.577Z,4.23
2023-02-15T08:32:55.440Z,4.26
2023-02-15T08:33:55.430Z,4.28
2023-02-15T08:34:58.642Z,4.34
2023-02-15T08:35:55.410Z,4.34
2023-02-15T08:36:55.434Z,4.36
2023-02-15T08:37:55.387Z,4.38
2023-02-15T08:38:55.391Z,4.42
2023-02-15T08:39:58.597Z,4.42
2023-02-15T08:40:55.361Z,4.45
2023-02-15T08:41:55.391Z,4.51
2023-02-15T08:42:55.348Z,4.56
2023-02-15T08:43:55.328Z,4.63
2023-02-15T08:44:55.343Z,4.63
2023-02-15T08:45:55.336Z,4.67
2023-02-15T08:46:55.288Z,4.69
2023-02-15T08:47:55.350Z,4.74
2023-02-15T08:48:55.280Z,4.75
2023-02-15T08:49:55.266Z,4.79
2023-02-15T08:50:55.256Z,4.85
2023-02-15T08:51:55.365Z,4.88
2023-02-15T08:52:55.233Z,4.89
2023-02-15T08:53:55.216Z,4.94
2023-02-15T08:54:55.219Z,4.94
2023-02-15T08:55:55.285Z,4.97
2023-02-15T08:56:55.222Z,5.00
2023-02-15T08:57:55.169Z,5.03
2023-02-15T08:58:55.167Z,5.06
2023-02-15T08:59:55.202Z,5.09
2023-02-15T09:00:55.163Z,5.11
2023-02-15T09:01:55.197Z,5.15
2023-02-15T09:02:55.125Z,5.18
2023-02-15T09:03:55.104Z,5.19
2023-02-15T09:04:55.206Z,5.24
2023-02-15T09:05:55.085Z,5.29
2023-02-15T09:06:55.075Z,5.33
2023-02-15T09:07:55.067Z,5.36
2023-02-15T09:08:55.061Z,5.39
2023-02-15T09:09:55.077Z,5.41
2023-02-15T09:10:55.070Z,5.47
2023-02-15T09:11:59.238Z,5.51
2023-02-15T09:12:55.067Z,5.52
2023-02-15T09:13:55.011Z,5.57
2023-02-15T09:14:55.086Z,5.58
2023-02-15T09:15:55.009Z,5.59
2023-02-15T09:16:55.025Z,5.65
2023-02-15T09:17:54.968Z,5.67
2023-02-15T09:18:54.951Z,5.69
2023-02-15T09:19:54.964Z,5.72
2023-02-15T09:20:54.923Z,5.73
2023-02-15T09:21:54.964Z,5.76
2023-02-15T09:22:57.302Z,5.80
2023-02-15T09:23:54.892Z,5.82
2023-02-15T09:24:54.882Z,5.84
2023-02-15T09:25:56.582Z,5.87
2023-02-15T09:26:54.963Z,5.90
2023-02-15T09:27:54.856Z,5.91
2023-02-15T09:28:54.849Z,5.94
2023-02-15T09:29:54.888Z,5.95
2023-02-15T09:30:54.928Z,6.02
2023-02-15T09:31:54.913Z,6.05
2023-02-15T09:32:54.810Z,6.08
2023-02-15T09:33:54.811Z,6.12
2023-02-15T09:34:54.869Z,6.16
2023-02-15T09:35:54.770Z,6.16
2023-02-15T09:36:54.773Z,6.19
2023-02-15T09:37:54.749Z,6.21
2023-02-15T09:38:54.739Z,6.25
2023-02-15T09:39:54.722Z,6.30
2023-02-15T09:40:54.758Z,6.34
2023-02-15T09:41:54.718Z,6.35
2023-02-15T09:42:54.730Z,6.38
2023-02-15T09:43:54.679Z,6.42
2023-02-15T09:44:54.713Z,6.46
2023-02-15T09:45:54.739Z,6.49
2023-02-15T09:46:54.671Z,6.52
2023-02-15T09:47:56.806Z,6.55
2023-02-15T09:48:54.627Z,6.60
2023-02-15T09:49:54.614Z,6.60
2023-02-15T09:50:54.649Z,6.64
2023-02-15T09:51:54.598Z,6.65
2023-02-15T09:52:54.595Z,6.68
2023-02-15T09:53:54.630Z,6.73
2023-02-15T09:54:54.575Z,6.75
2023-02-15T09:55:54.597Z,6.79
2023-02-15T09:56:54.544Z,6.81
2023-02-15T09:57:54.531Z,6.85
2023-02-15T09:58:54.529Z,6.89
2023-02-15T09:59:54.520Z,6.92
2023-02-15T10:00:54.552Z,6.97
2023-02-15T10:01:54.542Z,7.01
2023-02-15T10:02:54.500Z,7.06
2023-02-15T10:03:54.511Z,7.10
2023-02-15T10:04:54.579Z,7.13
2023-02-15T10:05:54.462Z,7.19
2023-02-15T10:06:54.450Z,7.25
2023-02-15T10:07:54.501Z,7.29
2023-02-15T10:08:54.420Z,7.34
2023-02-15T10:09:54.412Z,7.40
2023-02-15T10:10:54.405Z,7.43
2023-02-15T10:11:54.448Z,7.47
2023-02-15T10:12:54.393Z,7.52
2023-02-15T10:13:54.377Z,7.55
2023-02-15T10:14:54.350Z,7.61
2023-02-15T10:15:54.366Z,7.66
2023-02-15T10:16:54.358Z,7.69
2023-02-15T10:17:54.600Z,7.74
2023-02-15T10:18:54.349Z,7.80
2023-02-15T10:19:54.300Z,7.88
2023-02-15T10:20:54.288Z,7.92
2023-02-15T10:21:54.278Z,7.98
2023-02-15T10:22:54.380Z,8.01
2023-02-15T10:23:54.329Z,8.05
2023-02-15T10:24:54.248Z,8.13
2023-02-15T10:25:54.240Z,8.20
2023-02-15T10:26:54.266Z,8.26
2023-02-15T10:27:54.339Z,8.29
2023-02-15T10:28:54.213Z,8.35
2023-02-15T10:29:54.272Z,8.39
2023-02-15T10:30:54.279Z,8.41
2023-02-15T10:31:54.385Z,8.46
2023-02-15T10:32:54.197Z,8.47
2023-02-15T10:33:54.159Z,8.49
2023-02-15T10:34:54.150Z,8.53
2023-02-15T10:35:54.137Z,8.55
2023-02-15T10:36:54.136Z,8.57
2023-02-15T10:37:54.188Z,8.60
2023-02-15T10:38:54.102Z,8.60
2023-02-15T10:39:54.098Z,8.62
2023-02-15T10:40:54.079Z,8.67
2023-02-15T10:41:54.142Z,8.71
2023-02-15T10:42:54.064Z,8.75
2023-02-15T10:43:54.049Z,8.78
2023-02-15T10:44:54.037Z,8.81
2023-02-15T10:45:54.099Z,8.85
2023-02-15T10:46:54.014Z,8.88
2023-02-15T10:47:54.590Z,8.92
2023-02-15T10:48:53.995Z,8.93
2023-02-15T10:49:54.026Z,8.98
2023-02-15T10:50:53.998Z,9.01
2023-02-15T10:51:53.966Z,9.03
2023-02-15T10:52:57.017Z,9.06
2023-02-15T10:53:53.979Z,9.09
2023-02-15T10:54:53.955Z,9.14
2023-02-15T10:55:53.925Z,9.16
2023-02-15T10:56:53.909Z,9.19
2023-02-15T10:57:53.927Z,9.23
2023-02-15T10:58:53.885Z,9.24
2023-02-15T10:59:53.876Z,9.29
2023-02-15T11:00:53.995Z,9.32
2023-02-15T11:01:53.928Z,9.36
2023-02-15T11:02:53.851Z,9.40
2023-02-15T11:03:53.842Z,9.42
2023-02-15T11:04:53.898Z,9.47
2023-02-15T11:05:53.816Z,9.51
2023-02-15T11:06:53.856Z,9.52
2023-02-15T11:07:53.825Z,9.57
2023-02-15T11:08:53.795Z,9.65
2023-02-15T11:09:53.836Z,9.69
2023-02-15T11:10:53.772Z,9.75
2023-02-15T11:11:53.780Z,9.78
2023-02-15T11:12:53.738Z,9.81
2023-02-15T11:13:53.725Z,9.83
2023-02-15T11:14:53.718Z,9.85
2023-02-15T11:15:53.829Z,9.90
2023-02-15T11:16:53.696Z,9.91
2023-02-15T11:17:53.694Z,9.93
2023-02-15T11:18:53.664Z,9.96
2023-02-15T11:19:53.665Z,10.02
2023-02-15T11:20:53.744Z,10.08
2023-02-15T11:21:53.686Z,10.14
2023-02-15T11:22:53.681Z,10.16
2023-02-15T11:23:53.630Z,10.20
2023-02-15T11:24:53.617Z,10.23
2023-02-15T11:25:53.656Z,10.26
2023-02-15T11:26:53.593Z,10.26
2023-02-15T11:27:53.593Z,10.28
2023-02-15T11:28:53.564Z,10.31
2023-02-15T11:29:53.689Z,10.34
2023-02-15T11:30:53.673Z,10.35
2023-02-15T11:31:53.638Z,10.39
2023-02-15T11:32:53.526Z,10.46
2023-02-15T11:33:53.533Z,10.54
2023-02-15T11:34:53.503Z,10.60
2023-02-15T11:35:53.494Z,10.64
2023-02-15T11:36:53.473Z,10.68
2023-02-15T11:37:56.722Z,10.72
2023-02-15T11:38:53.464Z,10.73
2023-02-15T11:39:53.463Z,10.78
2023-02-15T11:40:53.446Z,10.79
2023-02-15T11:41:53.431Z,10.80
2023-02-15T11:42:53.468Z,10.83
2023-02-15T11:43:53.421Z,10.83
2023-02-15T11:44:53.394Z,10.87
2023-02-15T11:45:53.469Z,10.93
2023-02-15T11:46:53.361Z,10.95
2023-02-15T11:47:53.361Z,11.01
2023-02-15T11:48:53.371Z,11.03
2023-02-15T11:49:53.387Z,11.05
2023-02-15T11:50:53.338Z,11.12
2023-02-15T11:51:53.383Z,11.18
2023-02-15T11:52:53.306Z,11.20
2023-02-15T11:53:53.310Z,11.27
2023-02-15T11:54:53.304Z,11.30
2023-02-15T11:55:53.277Z,11.34
2023-02-15T11:56:53.321Z,11.36
2023-02-15T11:57:53.249Z,11.41
2023-02-15T11:58:53.255Z,11.45
2023-02-15T11:59:53.303Z,11.49
2023-02-15T12:00:53.229Z,11.52
2023-02-15T12:01:53.240Z,11.54
2023-02-15T12:02:53.280Z,11.54
2023-02-15T12:03:53.278Z,11.56
2023-02-15T12:04:53.214Z,11.56
2023-02-15T12:05:53.168Z,11.58
2023-02-15T12:06:53.159Z,11.59
2023-02-15T12:07:53.174Z,11.62
2023-02-15T12:08:53.130Z,11.69
2023-02-15T12:09:53.131Z,11.71
2023-02-15T12:10:53.160Z,11.76
2023-02-15T12:11:53.098Z,11.77
2023-02-15T12:12:53.088Z,11.80
2023-02-15T12:13:53.080Z,11.82
2023-02-15T12:14:53.102Z,11.85
2023-02-15T12:15:53.123Z,11.88
2023-02-15T12:16:53.045Z,11.95
2023-02-15T12:17:53.077Z,12.00
2023-02-15T12:18:53.028Z,12.04
2023-02-15T12:19:53.058Z,12.04
2023-02-15T12:20:52.997Z,12.05
2023-02-15T12:21:53.030Z,12.04
2023-02-15T12:22:52.998Z,12.07
2023-02-15T12:23:53.013Z,12.05
2023-02-15T12:24:52.958Z,12.05
2023-02-15T12:25:52.953Z,12.04
2023-02-15T12:26:52.968Z,12.05
2023-02-15T12:27:52.929Z,12.07
2023-02-15T12:28:52.938Z,12.13
2023-02-15T12:29:53.048Z,12.17
2023-02-15T12:30:52.926Z,12.17
2023-02-15T12:31:52.985Z,12.22
2023-02-15T12:32:54.647Z,12.26
2023-02-15T12:33:52.978Z,12.32
2023-02-15T12:34:52.859Z,12.38
2023-02-15T12:35:52.854Z,12.43
2023-02-15T12:36:52.828Z,12.46
2023-02-15T12:37:52.876Z,12.48
2023-02-15T12:38:59.466Z,12.59
2023-02-15T12:39:53.809Z,12.71
2023-02-15T12:40:52.984Z,12.83
2023-02-15T12:41:52.786Z,12.90
2023-02-15T12:42:52.816Z,12.93
2023-02-15T12:43:52.778Z,12.96
2023-02-15T12:44:52.743Z,12.98
2023-02-15T12:45:52.767Z,13.01
2023-02-15T12:46:52.787Z,13.01
2023-02-15T12:47:52.757Z,12.98
2023-02-15T12:48:52.737Z,12.99
2023-02-15T12:49:52.762Z,13.01
2023-02-15T12:50:55.703Z,12.98
2023-02-15T12:51:52.679Z,12.99
2023-02-15T12:52:52.666Z,13.02
2023-02-15T12:53:52.685Z,13.02
2023-02-15T12:54:52.650Z,13.01
2023-02-15T12:55:52.637Z,12.98
2023-02-15T12:56:52.668Z,12.98
2023-02-15T12:57:52.631Z,12.98
2023-02-15T12:58:52.629Z,12.99
2023-02-15T12:59:55.858Z,12.98
2023-02-15T13:00:52.610Z,12.98
2023-02-15T13:01:52.584Z,13.01
2023-02-15T13:02:52.561Z,13.04
2023-02-15T13:03:52.548Z,13.06
2023-02-15T13:04:52.535Z,13.09
2023-02-15T13:05:52.559Z,13.13
2023-02-15T13:06:52.514Z,13.13
2023-02-15T13:07:52.510Z,13.19
2023-02-15T13:08:52.576Z,13.23
2023-02-15T13:09:52.503Z,13.26
2023-02-15T13:10:52.471Z,13.29
2023-02-15T13:11:52.470Z,13.30
2023-02-15T13:12:52.458Z,13.30
2023-02-15T13:13:52.442Z,13.35